createdAt,value
2023-02-11T00:01:31.917Z,102409.31
2023-02-11T00:04:34.658Z,102409.28
2023-02-11T00:07:37.410Z,102407.59
2023-02-11T00:10:40.129Z,102403.56
2023-02-11T00:13:43.720Z,102407.09
2023-02-11T00:16:46.547Z,102403.69
2023-02-11T00:19:50.557Z,102400.50
2023-02-11T00:22:53.307Z,102396.31
2023-02-11T00:25:56.086Z,102391.09
2023-02-11T00:28:59.728Z,102392.00
2023-02-11T00:32:05.500Z,102389.34
2023-02-11T00:35:08.536Z,102383.47
2023-02-11T00:38:11.333Z,102382.50
2023-02-11T00:41:16.367Z,102387.56
2023-02-11T00:44:19.497Z,102390.72
2023-02-11T00:47:23.726Z,102391.53
2023-02-11T00:50:26.707Z,102389.50
2023-02-11T00:53:31.613Z,102390.06
2023-02-11T00:56:35.021Z,102382.44
2023-02-11T00:59:37.923Z,102383.41
2023-02-11T01:02:41.792Z,102381.84
2023-02-11T01:05:45.896Z,102364.75
2023-02-11T01:08:48.738Z,102362.13
2023-02-11T01:11:51.597Z,102361.94
2023-02-11T01:14:54.322Z,102355.72
2023-02-11T01:17:57.192Z,102354.97
2023-02-11T01:21:00.054Z,102354.09
2023-02-11T01:24:02.757Z,102354.09
2023-02-11T01:27:05.484Z,102349.94
2023-02-11T01:30:10.170Z,102348.38
2023-02-11T01:33:13.011Z,102345.88
2023-02-11T01:36:15.785Z,102341.56
2023-02-11T01:39:18.650Z,102342.81
2023-02-11T01:42:24.183Z,102335.34
2023-02-11T01:45:46.296Z,102334.69
2023-02-11T01:48:55.753Z,102328.44
2023-02-11T01:52:19.248Z,102315.50
2023-02-11T01:55:42.103Z,102320.66
2023-02-11T01:58:48.129Z,102304.66
2023-02-11T02:01:57.343Z,102305.69
2023-02-11T02:05:19.504Z,102299.06
2023-02-11T02:08:55.683Z,102291.09
2023-02-11T02:11:58.552Z,102286.09
2023-02-11T02:15:33.933Z,102278.41
2023-02-11T02:18:49.024Z,102274.13
2023-02-11T02:22:14.400Z,102275.06
2023-02-11T02:25:45.086Z,102275.16
2023-02-11T02:29:12.273Z,102265.72
2023-02-11T02:32:35.884Z,102262.63
2023-02-11T02:36:09.491Z,102272.09
2023-02-11T02:39:21.549Z,102273.16
2023-02-11T02:42:25.987Z,102260.97
2023-02-11T02:45:28.860Z,102265.97
2023-02-11T02:48:35.852Z,102266.19
2023-02-11T02:52:00.439Z,102261.13
2023-02-11T02:55:17.626Z,102267.13
2023-02-11T02:58:39.069Z,102260.19
2023-02-11T03:01:51.781Z,102257.81
2023-02-11T03:05:22.961Z,102259.63
2023-02-11T03:08:50.117Z,102252.88
2023-02-11T03:11:53.215Z,102234.44
2023-02-11T03:14:56.004Z,102244.47
2023-02-11T03:18:02.292Z,102242.66
2023-02-11T03:21:07.294Z,102253.69
2023-02-11T03:24:19.542Z,102247.00
2023-02-11T03:27:27.290Z,102245.06
2023-02-11T03:30:40.494Z,102247.56
2023-02-11T03:34:02.728Z,102248.28
2023-02-11T03:37:11.931Z,102245.66
2023-02-11T03:40:32.127Z,102253.28
2023-02-11T03:43:40.711Z,102248.28
2023-02-11T03:46:49.080Z,102255.13
2023-02-11T03:49:54.865Z,102261.03
2023-02-11T03:53:01.068Z,102254.31
2023-02-11T03:56:08.392Z,102256.75
2023-02-11T03:59:11.196Z,102241.63
2023-02-11T04:02:13.969Z,102257.94
2023-02-11T04:05:16.907Z,102245.19
2023-02-11T04:08:20.184Z,102243.63
2023-02-11T04:11:22.944Z,102250.59
2023-02-11T04:14:25.688Z,102245.66
2023-02-11T04:17:28.424Z,102236.59
2023-02-11T04:20:31.234Z,102234.63
2023-02-11T04:23:34.081Z,102240.28
2023-02-11T04:26:36.800Z,102233.59
2023-02-11T04:29:39.633Z,102234.31
2023-02-11T04:32:42.338Z,102232.84
2023-02-11T04:35:45.367Z,102222.22
2023-02-11T04:38:48.453Z,102220.38
2023-02-11T04:41:51.282Z,102214.38
2023-02-11T04:44:54.036Z,102224.63
2023-02-11T04:47:56.806Z,102219.22
2023-02-11T04:51:00.030Z,102212.72
2023-02-11T04:54:02.769Z,102211.41
2023-02-11T04:57:05.900Z,102209.44
2023-02-11T05:00:10.160Z,102201.91
2023-02-11T05:03:13.385Z,102206.91
2023-02-11T05:06:16.069Z,102201.06
2023-02-11T05:09:18.868Z,102186.38
2023-02-11T05:12:22.065Z,102192.88
2023-02-11T05:15:24.832Z,102200.25
2023-02-11T05:18:27.580Z,102196.91
2023-02-11T05:21:30.427Z,102187.66
2023-02-11T05:24:33.219Z,102185.19
2023-02-11T05:27:36.279Z,102188.66
2023-02-11T05:30:39.265Z,102189.63
2023-02-11T05:33:43.178Z,102191.06
2023-02-11T05:36:45.972Z,102180.34
2023-02-11T05:39:48.695Z,102163.63
2023-02-11T05:42:51.494Z,102174.56
2023-02-11T05:45:54.625Z,102172.84
2023-02-11T05:48:57.594Z,102173.63
2023-02-11T05:52:00.424Z,102170.13
2023-02-11T05:55:03.228Z,102171.88
2023-02-11T05:58:07.109Z,102175.34
2023-02-11T06:01:09.870Z,102173.53
2023-02-11T06:04:12.685Z,102178.69
2023-02-11T06:07:15.441Z,102178.63
2023-02-11T06:10:18.293Z,102167.38
2023-02-11T06:13:21.646Z,102174.66
2023-02-11T06:16:24.746Z,102173.00
2023-02-11T06:19:28.012Z,102181.44
2023-02-11T06:22:30.814Z,102177.06
2023-02-11T06:25:33.578Z,102187.09
2023-02-11T06:28:36.403Z,102180.13
2023-02-11T06:31:39.767Z,102187.25
2023-02-11T06:34:42.628Z,102191.97
2023-02-11T06:37:45.481Z,102182.50
2023-02-11T06:40:49.507Z,102187.22
2023-02-11T06:43:53.562Z,102182.03
2023-02-11T06:46:56.378Z,102179.44
2023-02-11T06:49:59.248Z,102173.19
2023-02-11T06:53:02.279Z,102170.22
2023-02-11T06:56:07.188Z,102174.16
2023-02-11T06:59:15.676Z,102179.03
2023-02-11T07:02:20.763Z,102175.31
2023-02-11T07:05:24.449Z,102181.06
2023-02-11T07:08:27.498Z,102167.09
2023-02-11T07:11:31.226Z,102186.03
2023-02-11T07:14:33.953Z,102175.41
2023-02-11T07:17:36.798Z,102178.41
2023-02-11T07:20:39.517Z,102180.84
2023-02-11T07:23:42.392Z,102183.53
2023-02-11T07:26:45.182Z,102179.00
2023-02-11T07:29:48.848Z,102190.38
2023-02-11T07:32:51.584Z,102185.25
2023-02-11T07:35:54.381Z,102178.41
2023-02-11T07:38:57.090Z,102179.75
2023-02-11T07:42:00.257Z,102170.03
2023-02-11T07:45:03.786Z,102174.00
2023-02-11T07:48:06.812Z,102178.59
2023-02-11T07:51:18.025Z,102169.69
2023-02-11T07:54:21.283Z,102174.19
2023-02-11T07:57:24.043Z,102162.63
2023-02-11T08:00:27.076Z,102169.63
2023-02-11T08:03:30.069Z,102168.31
2023-02-11T08:06:34.689Z,102164.09
2023-02-11T08:09:37.686Z,102166.66
2023-02-11T08:12:40.485Z,102165.31
2023-02-11T08:15:43.339Z,102164.53
2023-02-11T08:18:46.743Z,102166.63
2023-02-11T08:21:50.739Z,102156.69
2023-02-11T08:24:53.435Z,102156.81
2023-02-11T08:27:56.511Z,102148.47
2023-02-11T08:31:09.060Z,102155.25
2023-02-11T08:34:14.498Z,102149.69
2023-02-11T08:37:17.843Z,102152.03
2023-02-11T08:40:21.086Z,102148.13
2023-02-11T08:43:23.829Z,102148.34
2023-02-11T08:46:27.412Z,102145.75
2023-02-11T08:49:31.601Z,102146.38
2023-02-11T08:52:34.542Z,102157.41
2023-02-11T08:55:37.395Z,102158.38
2023-02-11T08:58:41.284Z,102158.44
2023-02-11T09:01:44.525Z,102156.94
2023-02-11T09:04:47.524Z,102155.03
2023-02-11T09:07:50.347Z,102150.75
2023-02-11T09:10:57.180Z,102140.84
2023-02-11T09:14:00.688Z,102137.84
2023-02-11T09:17:03.457Z,102134.66
2023-02-11T09:20:08.596Z,102129.34
2023-02-11T09:23:13.229Z,102126.28
2023-02-11T09:26:35.961Z,102120.09
2023-02-11T09:29:38.803Z,102123.44
2023-02-11T09:32:41.740Z,102117.47
2023-02-11T09:35:44.472Z,102119.81
2023-02-11T09:38:48.293Z,102117.91
2023-02-11T09:42:20.332Z,102122.63
2023-02-11T09:45:28.917Z,102109.47
2023-02-11T09:48:43.032Z,102121.56
2023-02-11T09:51:51.770Z,102116.25
2023-02-11T09:55:00.485Z,102112.34
2023-02-11T09:58:07.812Z,102116.66
2023-02-11T10:01:19.965Z,102106.00
2023-02-11T10:04:53.754Z,102105.34
2023-02-11T10:08:24.550Z,102090.81
2023-02-11T10:11:32.919Z,102090.22
2023-02-11T10:14:48.513Z,102081.56
2023-02-11T10:17:53.940Z,102071.22
2023-02-11T10:20:59.418Z,102065.84
2023-02-11T10:24:10.214Z,102066.34
2023-02-11T10:27:20.430Z,102073.19
2023-02-11T10:30:35.323Z,102067.44
2023-02-11T10:33:54.303Z,102067.78
2023-02-11T10:36:57.059Z,102055.66
2023-02-11T10:40:00.654Z,102056.09
2023-02-11T10:43:06.808Z,102042.66
2023-02-11T10:46:24.416Z,102040.63
2023-02-11T10:49:39.330Z,102032.47
2023-02-11T10:52:42.103Z,102034.59
2023-02-11T10:55:54.153Z,102022.59
2023-02-11T10:59:05.834Z,102029.19
2023-02-11T11:02:32.216Z,102013.72
2023-02-11T11:05:47.371Z,102011.28
2023-02-11T11:08:52.160Z,101999.94
2023-02-11T11:11:55.084Z,101999.22
2023-02-11T11:15:19.989Z,101989.69
2023-02-11T11:18:23.616Z,101974.72
2023-02-11T11:21:46.865Z,101982.31
2023-02-11T11:24:55.365Z,101982.72
2023-02-11T11:28:01.350Z,101969.63
2023-02-11T11:31:05.165Z,101964.25
2023-02-11T11:34:35.493Z,101969.53
2023-02-11T11:37:39.299Z,101966.31
2023-02-11T11:40:42.319Z,101965.69
2023-02-11T11:44:17.150Z,101960.44
2023-02-11T11:47:27.276Z,101950.13
2023-02-11T11:50:52.492Z,101953.44
2023-02-11T11:54:00.881Z,101949.72
2023-02-11T11:57:13.778Z,101949.41
2023-02-11T12:00:40.902Z,101956.72
2023-02-11T12:04:20.871Z,101944.63
2023-02-11T12:07:54.361Z,101939.47
2023-02-11T12:11:10.049Z,101932.47
2023-02-11T12:14:23.227Z,101924.00
2023-02-11T12:17:41.355Z,101928.22
2023-02-11T12:21:18.385Z,101924.50
2023-02-11T12:24:56.575Z,101929.66
2023-02-11T12:28:20.438Z,101916.66
2023-02-11T12:31:30.666Z,101911.59
2023-02-11T12:34:50.337Z,101904.84
2023-02-11T12:37:52.998Z,101910.38
2023-02-11T12:40:55.723Z,101902.44
2023-02-11T12:43:59.326Z,101885.72
2023-02-11T12:47:35.280Z,101886.94
2023-02-11T12:51:15.132Z,101879.94
2023-02-11T12:54:33.295Z,101886.28
2023-02-11T12:57:39.558Z,101880.41
2023-02-11T13:00:51.437Z,101884.56
2023-02-11T13:04:18.875Z,101871.13
2023-02-11T13:07:45.016Z,101850.28
2023-02-11T13:10:50.753Z,101864.22
2023-02-11T13:14:05.244Z,101868.78
2023-02-11T13:17:19.857Z,101862.28
2023-02-11T13:20:45.945Z,101855.25
2023-02-11T13:24:09.862Z,101842.16
2023-02-11T13:27:24.537Z,101846.28
2023-02-11T13:30:41.164Z,101846.34
2023-02-11T13:33:44.523Z,101834.97
2023-02-11T13:36:55.361Z,101834.47
2023-02-11T13:40:20.572Z,101829.31
2023-02-11T13:43:28.940Z,101827.66
2023-02-11T13:46:50.891Z,101820.22
2023-02-11T13:49:54.496Z,101806.94
2023-02-11T13:53:01.343Z,101814.94
2023-02-11T13:56:11.541Z,101802.31
2023-02-11T13:59:26.737Z,101800.88
2023-02-11T14:02:50.113Z,101797.56
2023-02-11T14:06:27.285Z,101798.13
2023-02-11T14:09:37.410Z,101806.94
2023-02-11T14:12:40.395Z,101798.75
2023-02-11T14:15:46.503Z,101802.44
2023-02-11T14:18:49.749Z,101810.06
2023-02-11T14:22:12.013Z,101804.84
2023-02-11T14:25:24.432Z,101801.41
2023-02-11T14:28:34.421Z,101802.03
2023-02-11T14:32:03.927Z,101797.19
2023-02-11T14:35:31.872Z,101799.19
2023-02-11T14:39:03.218Z,101783.44
2023-02-11T14:42:07.721Z,101772.72
2023-02-11T14:45:18.598Z,101775.28
2023-02-11T14:48:28.843Z,101768.50
2023-02-11T14:51:39.054Z,101771.09
2023-02-11T14:54:44.162Z,101775.59
2023-02-11T14:57:49.586Z,101773.03
2023-02-11T15:00:58.522Z,101774.97
2023-02-11T15:04:03.511Z,101778.25
2023-02-11T15:07:08.474Z,101784.25
2023-02-11T15:10:38.148Z,101784.13
2023-02-11T15:13:47.603Z,101768.97
2023-02-11T15:16:56.026Z,101781.19
2023-02-11T15:20:02.083Z,101785.69
2023-02-11T15:23:14.989Z,101784.50
2023-02-11T15:26:21.866Z,101780.47
2023-02-11T15:29:34.868Z,101777.06
2023-02-11T15:32:41.276Z,101767.53
2023-02-11T15:35:44.601Z,101760.66
2023-02-11T15:39:31.615Z,101756.88
2023-02-11T15:42:50.650Z,101745.69
2023-02-11T15:46:00.552Z,101745.53
2023-02-11T15:49:04.185Z,101744.25
2023-02-11T15:52:08.548Z,101745.53
2023-02-11T15:55:15.236Z,101749.41
2023-02-11T15:58:19.122Z,101755.47
2023-02-11T16:01:36.517Z,101752.50
2023-02-11T16:04:39.622Z,101751.06
2023-02-11T16:07:47.229Z,101738.09
2023-02-11T16:11:03.439Z,101733.34
2023-02-11T16:14:29.605Z,101742.06
2023-02-11T16:17:32.598Z,101720.97
2023-02-11T16:20:35.477Z,101739.22
2023-02-11T16:23:42.519Z,101724.81
2023-02-11T16:26:50.373Z,101742.25
2023-02-11T16:29:53.671Z,101733.16
2023-02-11T16:32:57.443Z,101737.63
2023-02-11T16:36:02.331Z,101744.69
2023-02-11T16:39:05.346Z,101736.44
2023-02-11T16:42:08.562Z,101724.34
2023-02-11T16:45:12.191Z,101721.22
2023-02-11T16:48:19.355Z,101714.59
2023-02-11T16:51:22.811Z,101715.44
2023-02-11T16:54:28.730Z,101726.50
2023-02-11T16:57:32.286Z,101716.34
2023-02-11T17:00:36.637Z,101714.59
2023-02-11T17:03:40.763Z,101716.44
2023-02-11T17:06:43.961Z,101713.84
2023-02-11T17:09:46.886Z,101702.00
2023-02-11T17:12:51.224Z,101709.91
2023-02-11T17:15:54.560Z,101708.38
2023-02-11T17:18:57.804Z,101707.25
2023-02-11T17:22:00.792Z,101716.69
2023-02-11T17:25:03.892Z,101711.81
2023-02-11T17:28:08.900Z,101713.50
2023-02-11T17:31:12.150Z,101718.53
2023-02-11T17:34:16.419Z,101715.25
2023-02-11T17:37:19.181Z,101710.84
2023-02-11T17:40:22.310Z,101720.13
2023-02-11T17:43:25.263Z,101718.28
2023-02-11T17:46:28.829Z,101705.81
2023-02-11T17:49:32.036Z,101711.16
2023-02-11T17:52:34.806Z,101717.09
2023-02-11T17:55:38.613Z,101714.59
2023-02-11T17:58:41.876Z,101706.81
2023-02-11T18:01:44.931Z,101694.91
2023-02-11T18:04:48.046Z,101673.16
2023-02-11T18:07:50.842Z,101679.94
2023-02-11T18:10:53.871Z,101681.31
2023-02-11T18:13:59.630Z,101691.84
2023-02-11T18:17:02.671Z,101688.44
2023-02-11T18:20:06.698Z,101697.25
2023-02-11T18:23:11.171Z,101681.47
2023-02-11T18:26:15.786Z,101683.03
2023-02-11T18:29:20.141Z,101677.25
2023-02-11T18:32:23.140Z,101680.59
2023-02-11T18:35:26.127Z,101687.00
2023-02-11T18:38:28.899Z,101686.53
2023-02-11T18:41:31.690Z,101694.44
2023-02-11T18:44:34.758Z,101689.19
2023-02-11T18:47:38.842Z,101697.28
2023-02-11T18:50:43.426Z,101688.38
2023-02-11T18:53:46.906Z,101694.50
2023-02-11T18:56:49.888Z,101696.41
2023-02-11T18:59:52.863Z,101689.28
2023-02-11T19:02:55.954Z,101689.38
2023-02-11T19:05:59.038Z,101689.47
2023-02-11T19:09:09.920Z,101696.41
2023-02-11T19:12:12.973Z,101692.13
2023-02-11T19:15:16.301Z,101690.66
2023-02-11T19:18:19.286Z,101684.59
2023-02-11T19:21:22.672Z,101690.09
2023-02-11T19:24:27.060Z,101699.69
2023-02-11T19:27:30.060Z,101703.09
2023-02-11T19:30:33.128Z,101693.28
2023-02-11T19:33:36.542Z,101688.69
2023-02-11T19:36:40.002Z,101681.09
2023-02-11T19:39:43.703Z,101687.22
2023-02-11T19:42:47.171Z,101692.91
2023-02-11T19:45:50.721Z,101683.13
2023-02-11T19:48:55.062Z,101672.84
2023-02-11T19:51:58.340Z,101672.13
2023-02-11T19:55:01.317Z,101665.72
2023-02-11T19:58:04.336Z,101672.31
2023-02-11T20:01:12.911Z,101658.75
2023-02-11T20:04:17.426Z,101662.69
2023-02-11T20:07:20.584Z,101664.16
2023-02-11T20:10:25.212Z,101671.66
2023-02-11T20:13:30.364Z,101671.66
2023-02-11T20:16:47.410Z,101664.47
2023-02-11T20:19:51.589Z,101672.69
2023-02-11T20:22:54.612Z,101666.00
2023-02-11T20:25:57.659Z,101663.53
2023-02-11T20:29:04.554Z,101668.38
2023-02-11T20:32:08.291Z,101663.53
2023-02-11T20:35:11.418Z,101667.94
2023-02-11T20:38:14.491Z,101670.50
2023-02-11T20:41:23.931Z,101662.03
2023-02-11T20:44:27.520Z,101650.97
2023-02-11T20:47:31.815Z,101653.53
2023-02-11T20:50:35.326Z,101652.78
2023-02-11T20:53:41.896Z,101651.97
2023-02-11T20:56:47.743Z,101649.13
2023-02-11T20:59:50.936Z,101652.78
2023-02-11T21:02:53.972Z,101649.13
2023-02-11T21:06:03.786Z,101648.31
2023-02-11T21:09:08.817Z,101658.56
2023-02-11T21:12:11.893Z,101657.47
2023-02-11T21:15:15.403Z,101655.06
2023-02-11T21:18:18.700Z,101667.28
2023-02-11T21:21:22.281Z,101663.34
2023-02-11T21:24:25.535Z,101670.13
2023-02-11T21:27:33.227Z,101670.94
2023-02-11T21:30:39.062Z,101677.56
2023-02-11T21:33:41.806Z,101666.38
2023-02-11T21:36:45.356Z,101663.34
2023-02-11T21:39:48.377Z,101659.53
2023-02-11T21:42:51.758Z,101669.66
2023-02-11T21:45:54.907Z,101665.97
2023-02-11T21:48:58.481Z,101656.25
2023-02-11T21:52:01.433Z,101659.72
2023-02-11T21:55:04.650Z,101662.56
2023-02-11T21:58:08.027Z,101651.09
2023-02-11T22:01:16.463Z,101658.78
2023-02-11T22:04:19.759Z,101650.84
2023-02-11T22:07:23.629Z,101655.50
2023-02-11T22:10:26.423Z,101657.56
2023-02-11T22:13:29.276Z,101658.09
2023-02-11T22:16:32.299Z,101648.19
2023-02-11T22:19:35.614Z,101660.00
2023-02-11T22:22:38.491Z,101657.44
2023-02-11T22:25:41.268Z,101653.22
2023-02-11T22:28:44.523Z,101660.50
2023-02-11T22:31:47.618Z,101654.44
2023-02-11T22:34:53.111Z,101657.75
2023-02-11T22:37:56.140Z,101657.28
2023-02-11T22:41:00.310Z,101666.09
2023-02-11T22:44:02.998Z,101664.53
2023-02-11T22:47:05.771Z,101653.63
2023-02-11T22:50:08.933Z,101660.66
2023-02-11T22:53:11.652Z,101663.41
2023-02-11T22:56:15.839Z,101651.03
2023-02-11T22:59:18.998Z,101642.50
2023-02-11T23:02:22.348Z,101647.53
2023-02-11T23:05:25.332Z,101648.28
2023-02-11T23:08:29.325Z,101651.13
2023-02-11T23:11:32.836Z,101643.13
2023-02-11T23:14:35.703Z,101635.31
2023-02-11T23:17:38.432Z,101643.66
2023-02-11T23:20:43.142Z,101656.09
2023-02-11T23:23:45.949Z,101649.63
2023-02-11T23:26:48.791Z,101645.69
2023-02-11T23:29:51.521Z,101648.44
2023-02-11T23:32:54.951Z,101640.78
2023-02-11T23:35:57.638Z,101643.41
2023-02-11T23:39:00.436Z,101624.63
2023-02-11T23:42:03.539Z,101630.09
2023-02-11T23:45:08.130Z,101632.56
2023-02-11T23:48:10.912Z,101626.91
2023-02-11T23:51:13.879Z,101621.47
2023-02-11T23:54:16.733Z,101616.19
2023-02-11T23:57:19.436Z,101612.50
